Time;durP1;ratioP1;P1;durP2;ratioP2;P2;SDS_P1;SDS_P2;PMS_P1;PMS_P2;Temp;Humidity;BMP_temperature;BMP_pressure;BME280_temperature;BME280_humidity;BME280_pressure;Samples;Min_cycle;Max_cycle;Signal;HPM_P1;HPM_P2
2021/04/15 00:00:41;;;;;;;3.47;1.67;;;;;;;5.63;57.56;101175.41;5054992;28;20045;-85
2021/04/15 00:03:15;;;;;;;3.97;2.45;;;;;;;5.61;57.90;101177.19;5057505;28;20056;-85
2021/04/15 00:05:42;;;;;;;3.78;2.05;;;;;;;5.61;57.56;101174.59;5057312;28;20045;-85
2021/04/15 00:08:09;;;;;;;3.33;1.75;;;;;;;5.59;57.71;101182.44;5039724;28;20412;-82
2021/04/15 00:10:40;;;;;;;6.10;2.15;;;;;;;5.57;57.83;101178.97;5057350;28;20057;-82
2021/04/15 00:13:11;;;;;;;6.95;2.30;;;;;;;5.56;57.85;101177.25;5039817;28;20417;-83
2021/04/15 00:15:38;;;;;;;4.28;1.98;;;;;;;5.55;57.48;101166.81;5056817;28;20095;-83
2021/04/15 00:18:04;;;;;;;3.88;1.73;;;;;;;5.55;57.54;101172.91;5057439;28;20460;-85
2021/04/15 00:20:30;;;;;;;3.58;1.83;;;;;;;5.53;57.91;101172.06;5057022;28;20132;-85
2021/04/15 00:22:57;;;;;;;4.15;2.20;;;;;;;5.53;57.81;101171.22;5056891;28;20052;-85
2021/04/15 00:25:24;;;;;;;3.65;1.77;;;;;;;5.53;57.81;101166.00;5038941;28;20091;-85
2021/04/15 00:27:52;;;;;;;4.68;2.20;;;;;;;5.50;57.87;101168.63;5056892;28;20048;-85
2021/04/15 00:30:19;;;;;;;7.18;2.22;;;;;;;5.48;57.90;101171.25;5056812;28;20049;-85
2021/04/15 00:32:45;;;;;;;3.53;2.10;;;;;;;5.47;57.86;101167.78;5056728;28;20048;-85
2021/04/15 00:35:12;;;;;;;5.63;2.35;;;;;;;5.45;58.09;101166.06;5056393;28;20048;-84
2021/04/15 00:37:38;;;;;;;2.97;1.90;;;;;;;5.44;57.90;101161.72;5056743;28;20044;-84
2021/04/15 00:40:07;;;;;;;5.40;1.90;;;;;;;5.41;58.12;101159.16;5056782;28;20045;-84
2021/04/15 00:42:36;;;;;;;4.10;2.03;;;;;;;5.39;57.82;101160.94;5056713;28;20106;-82
2021/04/15 00:45:09;;;;;;;4.40;1.70;;;;;;;5.37;58.26;101157.47;5056057;28;20520;-82
2021/04/15 00:47:37;;;;;;;9.07;2.10;;;;;;;5.35;58.14;101160.97;5056772;28;20110;-84
2021/04/15 00:50:11;;;;;;;4.78;1.83;;;;;;;5.34;58.37;101155.75;5056458;28;20416;-85
2021/04/15 00:52:43;;;;;;;4.45;1.92;;;;;;;5.34;58.22;101155.75;5056602;28;20049;-85
2021/04/15 00:55:16;;;;;;;5.47;1.77;;;;;;;5.31;58.18;101154.06;5056178;28;20048;-85
2021/04/15 00:57:48;;;;;;;5.60;2.25;;;;;;;5.33;58.32;101161.88;5056370;28;20452;-85
2021/04/15 01:00:18;;;;;;;6.32;2.80;;;;;;;5.30;58.31;101148.84;5056463;28;20048;-85
2021/04/15 01:02:45;;;;;;;9.57;2.45;;;;;;;5.29;58.02;101158.44;5056406;28;20460;-85
2021/04/15 01:05:24;;;;;;;4.32;1.73;;;;;;;5.23;58.34;101158.50;5055887;28;20053;-85
2021/04/15 01:07:51;;;;;;;3.72;2.20;;;;;;;5.25;58.10;101153.25;5056319;28;20394;-85
2021/04/15 01:10:19;;;;;;;2.72;2.10;;;;;;;5.22;57.97;101154.16;5056314;28;20127;-85
2021/04/15 01:12:51;;;;;;;6.25;2.00;;;;;;;5.19;58.15;101144.63;5055015;28;20063;-84
2021/04/15 01:15:39;;;;;;;6.75;2.28;;;;;;;5.13;58.64;101160.38;5055990;28;20049;-85
2021/04/15 01:18:25;;;;;;;4.28;2.10;;;;;;;5.13;58.50;101144.72;5038371;28;20044;-85
2021/04/15 01:21:11;;;;;;;2.78;1.75;;;;;;;5.09;58.73;101143.88;5056067;28;20053;-85
2021/04/15 01:23:54;;;;;;;8.27;2.33;;;;;;;5.07;58.55;101153.47;5055786;28;20045;-85
2021/04/15 01:26:38;;;;;;;5.45;1.90;;;;;;;5.06;58.54;101149.16;5055772;28;20041;-85
2021/04/15 01:29:07;;;;;;;5.55;2.30;;;;;;;5.06;58.15;101145.66;5055725;28;20057;-85
2021/04/15 01:31:48;;;;;;;5.57;1.95;;;;;;;5.00;58.61;101138.75;5055579;28;20063;-85
2021/04/15 01:34:27;;;;;;;3.28;2.05;;;;;;;4.99;58.61;101142.25;5055651;28;20049;-85
2021/04/15 01:37:03;;;;;;;5.45;2.40;;;;;;;4.97;58.71;101146.63;5055724;28;20045;-85
2021/04/15 01:39:36;;;;;;;7.10;2.10;;;;;;;4.97;58.82;101151.00;5055612;28;20049;-85
2021/04/15 01:42:08;;;;;;;6.28;2.30;;;;;;;4.95;58.64;101149.25;5055734;28;20049;-85
2021/04/15 01:44:45;;;;;;;7.93;1.93;;;;;;;4.93;58.47;101156.22;5055209;28;20053;-85
2021/04/15 01:47:20;;;;;;;6.35;1.92;;;;;;;4.92;58.51;101153.63;5037396;28;20045;-85
2021/04/15 01:49:53;;;;;;;5.90;2.08;;;;;;;4.92;59.16;101153.63;5038107;28;20404;-85
2021/04/15 01:52:19;;;;;;;6.57;2.20;;;;;;;4.91;58.53;101151.91;5055376;28;20048;-85
2021/04/15 01:55:02;;;;;;;8.00;2.30;;;;;;;4.88;59.06;101152.81;5055079;28;20049;-85
2021/04/15 01:57:38;;;;;;;7.85;2.30;;;;;;;4.89;59.01;101148.44;5037258;28;20417;-85
2021/04/15 02:00:17;;;;;;;4.15;2.05;;;;;;;4.87;58.83;101150.22;5055750;28;20049;-85
2021/04/15 02:02:49;;;;;;;3.55;2.00;;;;;;;4.87;58.53;101153.69;5055303;28;20130;-85
2021/04/15 02:05:25;;;;;;;6.57;2.38;;;;;;;4.85;58.69;101152.84;5054898;28;20102;-84
2021/04/15 02:07:57;;;;;;;6.47;2.20;;;;;;;4.83;59.21;101158.06;5055129;28;20075;-84
2021/04/15 02:10:24;;;;;;;7.10;2.75;;;;;;;4.84;58.61;101151.13;5037267;28;20414;-84
2021/04/15 02:12:55;;;;;;;7.85;2.20;;;;;;;4.81;58.90;101156.34;5055134;28;20132;-84
2021/04/15 02:15:26;;;;;;;6.13;2.00;;;;;;;4.80;59.35;101155.50;5054756;28;20056;-85
2021/04/15 02:17:56;;;;;;;5.07;2.50;;;;;;;4.79;58.91;101158.97;5054855;28;20057;-85
2021/04/15 02:20:26;;;;;;;4.70;2.42;;;;;;;4.78;59.26;101158.97;5055013;28;20053;-85
2021/04/15 02:23:21;;;;;;;7.88;2.45;;;;;;;4.77;59.02;101155.53;5054430;28;20076;-85
2021/04/15 02:26:08;;;;;;;3.78;1.90;;;;;;;4.73;59.15;101153.84;5033102;28;20041;-85
2021/04/15 02:28:47;;;;;;;4.80;1.98;;;;;;;4.77;58.79;101155.53;5054546;28;20053;-85
2021/04/15 02:31:18;;;;;;;8.40;2.47;;;;;;;4.73;59.49;101156.44;5054433;28;20045;-85
2021/04/15 02:33:57;;;;;;;5.03;2.30;;;;;;;4.72;59.24;101162.53;5054202;28;20045;-85
2021/04/15 02:36:30;;;;;;;3.47;2.28;;;;;;;4.72;59.15;101157.31;5054608;28;20166;-85
2021/04/15 02:39:07;;;;;;;5.28;2.60;;;;;;;4.71;59.51;101157.34;5054474;28;20053;-84
2021/04/15 02:41:36;;;;;;;6.90;2.08;;;;;;;4.73;59.27;101158.19;5054284;28;20057;-84
2021/04/15 02:44:09;;;;;;;4.13;2.38;;;;;;;4.73;59.59;101158.19;5054239;28;20049;-85
2021/04/15 02:46:45;;;;;;;7.53;2.45;;;;;;;4.71;59.63;101158.19;5036740;28;20060;-84
2021/04/15 02:49:14;;;;;;;4.38;2.05;;;;;;;4.73;59.30;101152.97;5037247;28;20048;-84
2021/04/15 02:51:46;;;;;;;5.78;2.70;;;;;;;4.72;59.56;101156.44;5054320;28;20053;-84
2021/04/15 02:54:32;;;;;;;2.70;1.80;;;;;;;4.69;59.38;101157.34;5054061;28;20060;-85
2021/04/15 02:57:05;;;;;;;4.78;2.22;;;;;;;4.71;58.96;101165.16;5052865;28;20052;-85
2021/04/15 02:59:38;;;;;;;4.50;2.53;;;;;;;4.68;59.28;101166.06;5052706;28;20448;-85
2021/04/15 03:02:10;;;;;;;9.55;3.10;;;;;;;4.66;59.04;101165.19;5054321;28;20056;-85
2021/04/15 03:04:39;;;;;;;5.90;2.50;;;;;;;4.66;59.04;101165.19;5053635;28;20057;-85
2021/04/15 03:07:07;;;;;;;3.70;2.40;;;;;;;4.66;59.18;101167.81;5036181;28;20052;-85
2021/04/15 03:09:35;;;;;;;9.40;2.70;;;;;;;4.63;59.41;101165.25;5053740;28;20053;-85
2021/04/15 03:12:19;;;;;;;9.90;2.60;;;;;;;4.59;59.72;101169.59;5054100;28;20053;-85
2021/04/15 03:15:17;;;;;;;6.22;2.15;;;;;;;4.57;59.58;101161.78;5053616;28;20045;-85
2021/04/15 03:17:46;;;;;;;5.80;2.70;;;;;;;4.60;59.11;101163.50;4984218;28;20052;-84
2021/04/15 03:20:16;;;;;;;4.45;2.42;;;;;;;4.57;59.44;101168.78;5054004;28;20049;-85
2021/04/15 03:22:50;;;;;;;5.35;2.70;;;;;;;4.55;59.63;101162.69;5053803;28;20056;-85
2021/04/15 03:25:16;;;;;;;6.55;2.63;;;;;;;4.54;59.29;101168.78;5053253;28;20053;-85
2021/04/15 03:28:03;;;;;;;4.40;2.53;;;;;;;4.46;59.63;101168.88;5035705;28;20087;-85
2021/04/15 03:30:56;;;;;;;5.25;2.60;;;;;;;4.48;59.57;101171.47;5053563;28;20452;-85
2021/04/15 03:33:32;;;;;;;5.78;2.90;;;;;;;4.44;59.69;101168.00;5043101;28;20490;-85
2021/04/15 03:36:22;;;;;;;7.68;2.88;;;;;;;4.42;59.54;101165.41;5035207;28;20053;-86
2021/04/15 03:38:58;;;;;;;5.57;2.42;;;;;;;4.39;59.77;101160.22;5052925;28;20056;-86
2021/04/15 03:41:30;;;;;;;6.55;2.40;;;;;;;4.38;59.62;101165.47;5053487;28;20049;-86
2021/04/15 03:44:03;;;;;;;7.43;2.95;;;;;;;4.35;59.41;101162.88;5053072;28;20060;-86
2021/04/15 03:47:07;;;;;;;5.47;3.28;;;;;;;4.32;59.61;101165.50;5053224;28;20448;-86
2021/04/15 03:49:39;;;;;;;7.00;2.92;;;;;;;4.29;59.90;101161.16;5009339;28;20060;-86
2021/04/15 03:52:18;;;;;;;4.70;2.85;;;;;;;4.25;59.91;101165.56;5053429;28;20045;-86
2021/04/15 03:54:51;;;;;;;6.93;3.17;;;;;;;4.25;59.58;101167.28;5053166;28;20060;-86
2021/04/15 03:57:21;;;;;;;7.68;2.97;;;;;;;4.24;60.02;101161.22;5036075;28;20045;-86
2021/04/15 04:00:10;;;;;;;4.13;2.90;;;;;;;4.20;60.26;101158.63;5053322;28;20052;-86
2021/04/15 04:02:47;;;;;;;7.07;3.17;;;;;;;4.20;59.74;101158.63;5053270;28;20053;-86
2021/04/15 04:05:24;;;;;;;4.85;2.65;;;;;;;4.18;59.91;101158.66;5052986;28;20053;-86
2021/04/15 04:08:03;;;;;;;5.13;3.20;;;;;;;4.16;60.24;101158.66;5053275;28;20053;-86
2021/04/15 04:10:37;;;;;;;6.65;2.85;;;;;;;4.16;59.93;101163.03;5035583;28;20057;-86
2021/04/15 04:13:09;;;;;;;8.20;3.42;;;;;;;4.14;59.98;101162.16;5053280;28;20049;-86
2021/04/15 04:15:41;;;;;;;6.85;3.28;;;;;;;4.13;59.81;101163.03;5035303;28;20049;-86
2021/04/15 04:18:14;;;;;;;6.40;3.22;;;;;;;4.13;60.26;101168.25;5053125;28;20045;-86
2021/04/15 04:20:42;;;;;;;4.43;3.10;;;;;;;4.13;59.79;101168.25;5035489;28;20053;-86
2021/04/15 04:23:26;;;;;;;4.88;3.13;;;;;;;4.11;60.49;101176.06;5052981;28;20056;-86
2021/04/15 04:26:38;;;;;;;7.43;3.53;;;;;;;4.10;60.15;101176.06;5034957;28;20072;-86
2021/04/15 04:29:18;;;;;;;8.93;2.88;;;;;;;4.10;60.14;101176.06;5031480;28;20049;-86
2021/04/15 04:31:48;;;;;;;7.15;3.50;;;;;;;4.12;59.68;101182.16;5053047;28;20045;-86
2021/04/15 04:34:17;;;;;;;5.55;2.88;;;;;;;4.11;59.85;101185.66;5052796;28;20045;-86
2021/04/15 04:36:46;;;;;;;5.72;2.92;;;;;;;4.09;59.70;101184.78;5035346;28;20103;-85
2021/04/15 04:39:16;;;;;;;9.45;4.20;;;;;;;4.07;59.94;101186.53;5053039;28;20053;-86
2021/04/15 04:41:54;;;;;;;9.63;3.63;;;;;;;4.04;60.39;101193.50;5052826;28;20049;-86
2021/04/15 04:44:35;;;;;;;7.75;3.35;;;;;;;4.04;60.30;101193.50;5034714;28;20053;-86
2021/04/15 04:47:10;;;;;;;8.38;3.22;;;;;;;4.03;60.63;101194.38;5054835;28;20045;-86
2021/04/15 04:49:44;;;;;;;8.40;3.13;;;;;;;4.04;60.59;101196.09;5056355;28;20056;-86
2021/04/15 04:52:25;;;;;;;6.80;3.33;;;;;;;4.03;60.48;101201.31;5056514;28;20072;-86
2021/04/15 04:54:52;;;;;;;7.32;4.00;;;;;;;4.07;60.60;101199.56;5056319;28;20052;-86
2021/04/15 04:57:33;;;;;;;5.68;3.63;;;;;;;4.03;60.94;101199.59;5056555;28;20071;-86
2021/04/15 05:00:06;;;;;;;6.97;3.17;;;;;;;4.06;60.94;101197.81;5038803;28;20049;-85
2021/04/15 05:02:32;;;;;;;5.75;3.38;;;;;;;4.09;60.35;101198.69;5056370;28;20056;-86
2021/04/15 05:05:06;;;;;;;6.45;3.35;;;;;;;4.08;60.69;101202.19;5055905;28;20059;-86
2021/04/15 05:07:36;;;;;;;10.85;3.85;;;;;;;4.11;60.70;101207.34;5056088;28;20045;-86
2021/04/15 05:10:05;;;;;;;5.15;3.38;;;;;;;4.12;60.64;101211.66;5038222;28;20494;-86
2021/04/15 05:12:35;;;;;;;10.13;4.20;;;;;;;4.14;60.47;101209.94;5038651;28;20064;-86
2021/04/15 05:15:03;;;;;;;8.60;3.33;;;;;;;4.15;60.57;101206.44;5038307;28;20048;-86
2021/04/15 05:17:38;;;;;;;10.38;4.00;;;;;;;4.15;60.99;101223.84;5055996;28;20045;-86
2021/04/15 05:20:16;;;;;;;5.97;3.92;;;;;;;4.19;60.62;101219.47;5055954;28;20053;-86
2021/04/15 05:22:47;;;;;;;7.28;3.75;;;;;;;4.19;60.91;101216.88;5056046;28;20052;-86
2021/04/15 05:25:21;;;;;;;9.60;3.70;;;;;;;4.20;61.11;101224.69;5055704;28;20083;-86
2021/04/15 05:27:48;;;;;;;12.05;3.38;;;;;;;4.23;60.46;101224.63;5055728;28;20056;-86
2021/04/15 05:30:17;;;;;;;11.27;3.70;;;;;;;4.24;60.57;101226.38;5055862;28;20049;-86
2021/04/15 05:32:45;;;;;;;7.55;3.47;;;;;;;4.25;60.64;101230.72;5055713;28;20115;-86
2021/04/15 05:35:16;;;;;;;8.15;3.50;;;;;;;4.26;61.11;101234.19;5055524;28;20049;-86
2021/04/15 05:37:43;;;;;;;7.28;3.50;;;;;;;4.30;61.04;101235.91;5038107;28;20052;-85
2021/04/15 05:40:10;;;;;;;6.50;3.25;;;;;;;4.30;61.17;101234.16;5055517;28;20060;-86
2021/04/15 05:42:42;;;;;;;6.45;3.17;;;;;;;4.32;61.00;101239.34;5037941;28;20052;-86
2021/04/15 05:45:21;;;;;;;10.60;2.85;;;;;;;4.34;61.42;101239.34;5055489;28;20060;-86
2021/04/15 05:47:47;;;;;;;8.68;3.47;;;;;;;4.37;60.70;101242.78;5055336;28;20055;-86
2021/04/15 05:50:17;;;;;;;5.35;3.58;;;;;;;4.40;61.45;101250.59;5037685;28;20406;-86
2021/04/15 05:52:52;;;;;;;7.47;3.70;;;;;;;4.40;61.36;101241.91;5055422;28;20103;-86
2021/04/15 05:55:26;;;;;;;5.15;3.22;;;;;;;4.43;61.35;101247.09;5037287;28;20045;-85
2021/04/15 05:58:06;;;;;;;5.03;3.28;;;;;;;4.46;61.20;101254.03;5077125;22;20448;-85
2021/04/15 06:00:52;;;;;;;5.93;3.10;;;;;;;4.48;61.18;101258.38;5055478;28;20420;-85
2021/04/15 06:03:42;;;;;;;11.30;3.75;;;;;;;4.49;61.84;101259.25;5037837;28;20071;-85
2021/04/15 06:06:13;;;;;;;4.68;3.22;;;;;;;4.53;61.19;101250.50;5055213;28;20448;-85
2021/04/15 06:08:43;;;;;;;4.70;2.60;;;;;;;4.55;61.39;101254.84;5037536;28;20052;-85
2021/04/15 06:11:39;;;;;;;8.93;3.15;;;;;;;4.55;61.80;101264.41;5038200;28;20055;-85
2021/04/15 06:14:19;;;;;;;8.73;3.15;;;;;;;4.59;61.93;101266.09;5055107;28;20048;-85
2021/04/15 06:17:04;;;;;;;4.97;3.13;;;;;;;4.62;61.74;101263.47;5055281;28;20045;-85
2021/04/15 06:19:32;;;;;;;9.63;2.75;;;;;;;4.66;61.41;101254.75;5020823;28;20123;-85
2021/04/15 06:22:19;;;;;;;8.50;3.53;;;;;;;4.67;62.08;101260.81;5037206;28;20056;-85
2021/04/15 06:24:49;;;;;;;5.05;2.80;;;;;;;4.72;61.78;101259.06;5054971;28;20409;-85
2021/04/15 06:27:17;;;;;;;8.95;2.97;;;;;;;4.77;61.71;101265.09;5054769;28;20040;-85
2021/04/15 06:30:08;;;;;;;7.43;3.60;;;;;;;4.78;62.41;101255.50;5036879;28;20053;-85
2021/04/15 06:32:53;;;;;;;4.07;2.53;;;;;;;4.83;62.03;101264.19;5054512;28;20402;-86
2021/04/15 06:35:27;;;;;;;5.82;2.72;;;;;;;4.90;62.26;101265.00;5053744;28;20053;-85
2021/04/15 06:38:33;;;;;;;6.95;3.40;;;;;;;4.92;62.20;101268.44;5054363;28;20045;-85
2021/04/15 06:41:25;;;;;;;6.28;2.80;;;;;;;4.99;62.08;101269.25;5052330;28;20048;-85
2021/04/15 06:44:26;;;;;;;4.55;3.00;;;;;;;5.00;62.49;101266.63;5054444;28;20060;-85
2021/04/15 06:47:19;;;;;;;4.88;3.00;;;;;;;5.05;62.19;101270.06;5032730;28;20057;-85
2021/04/15 06:50:13;;;;;;;6.10;3.72;;;;;;;5.06;62.26;101277.03;5036688;28;20057;-85
2021/04/15 06:52:53;;;;;;;7.63;3.53;;;;;;;5.09;62.26;101271.75;5036644;28;20412;-85
2021/04/15 06:55:32;;;;;;;5.28;3.35;;;;;;;5.14;61.61;101270.84;5036326;28;20049;-85
2021/04/15 06:58:20;;;;;;;6.18;3.25;;;;;;;5.14;62.22;101279.56;5036314;28;20057;-85
2021/04/15 07:01:22;;;;;;;3.92;2.83;;;;;;;5.14;62.47;101273.47;5036558;28;20053;-85
2021/04/15 07:04:07;;;;;;;8.90;2.92;;;;;;;5.17;62.71;101273.44;5036574;28;20103;-85
2021/04/15 07:06:47;;;;;;;6.90;2.80;;;;;;;5.21;62.48;101275.16;5054109;28;20045;-85
2021/04/15 07:09:23;;;;;;;5.47;3.30;;;;;;;5.25;62.77;101269.00;5053591;28;20448;-85
2021/04/15 07:12:10;;;;;;;9.88;3.05;;;;;;;5.29;62.81;101275.94;5053786;28;20456;-85
2021/04/15 07:14:54;;;;;;;3.47;2.47;;;;;;;5.35;62.34;101268.03;5053873;28;20493;-85
2021/04/15 07:17:39;;;;;;;8.02;2.90;;;;;;;5.40;62.66;101275.81;5052901;28;20400;-85
2021/04/15 07:20:08;;;;;;;5.40;2.53;;;;;;;5.46;62.35;101278.34;5037210;28;20049;-85
2021/04/15 07:22:43;;;;;;;7.65;2.88;;;;;;;5.48;62.94;101275.72;5053977;28;20057;-85
2021/04/15 07:25:38;;;;;;;4.63;2.95;;;;;;;5.53;63.19;101279.16;5054082;28;20049;-85
2021/04/15 07:28:41;;;;;;;8.98;2.80;;;;;;;5.57;63.17;101278.22;5056930;28;20044;-85
2021/04/15 07:31:38;;;;;;;5.70;3.25;;;;;;;5.61;62.99;101279.94;5073176;28;20060;-86
2021/04/15 07:34:10;;;;;;;5.50;2.72;;;;;;;5.66;62.96;101292.94;5055739;28;20420;-86
2021/04/15 07:37:00;;;;;;;6.10;2.70;;;;;;;5.68;63.22;101285.09;5055827;28;20056;-85
2021/04/15 07:40:08;;;;;;;8.60;3.00;;;;;;;5.73;63.43;101289.34;5055845;28;20049;-87
2021/04/15 07:42:55;;;;;;;6.05;3.20;;;;;;;5.81;63.53;101286.69;5055411;28;20052;-85
2021/04/15 07:45:35;;;;;;;8.32;3.47;;;;;;;5.89;63.89;101293.53;5073347;28;20048;-86
2021/04/15 07:48:20;;;;;;;8.52;3.40;;;;;;;5.97;64.07;101296.91;5072932;28;20048;-85
2021/04/15 07:51:24;;;;;;;9.93;3.72;;;;;;;6.07;64.21;101293.34;5055473;28;20052;-85
2021/04/15 07:54:22;;;;;;;7.88;3.50;;;;;;;6.22;63.95;101302.75;5073023;28;20055;-87
2021/04/15 07:57:13;;;;;;;9.73;3.70;;;;;;;6.34;64.14;101301.69;5073245;28;20051;-86
2021/04/15 08:00:05;;;;;;;10.23;3.30;;;;;;;6.46;64.13;101300.63;5056037;28;20516;-86
2021/04/15 08:02:46;;;;;;;8.38;3.65;;;;;;;6.59;63.79;101301.34;5055031;28;20056;-86
2021/04/15 08:05:34;;;;;;;7.93;3.50;;;;;;;6.70;63.99;101308.16;5054944;28;20513;-86
2021/04/15 08:08:35;;;;;;;6.38;3.58;;;;;;;6.84;63.91;101306.16;5055051;28;20044;-86
2021/04/15 08:11:23;;;;;;;7.75;3.47;;;;;;;6.99;63.90;101312.06;5044586;28;20055;-86
2021/04/15 08:14:17;;;;;;;12.38;3.42;;;;;;;7.11;63.75;101303.94;5072696;28;20048;-86
2021/04/15 08:17:15;;;;;;;6.60;3.40;;;;;;;7.25;63.19;101310.72;5073194;28;20052;-86
2021/04/15 08:20:11;;;;;;;5.80;3.17;;;;;;;7.34;63.23;101317.53;5002107;28;20526;-86
2021/04/15 08:22:47;;;;;;;9.15;3.65;;;;;;;7.43;63.34;101312.13;5058001;28;20052;-86
2021/04/15 08:25:31;;;;;;;7.57;3.60;;;;;;;7.54;62.65;101311.94;5058310;28;20059;-86
2021/04/15 08:28:01;;;;;;;6.80;3.17;;;;;;;7.62;62.80;101317.03;5059064;28;20063;-87
2021/04/15 08:30:59;;;;;;;10.23;4.03;;;;;;;7.65;62.46;101315.22;5059365;28;20124;-86
2021/04/15 08:33:59;;;;;;;6.25;2.97;;;;;;;7.73;62.04;101317.66;5077000;28;20053;-86
2021/04/15 08:36:32;;;;;;;5.78;2.50;;;;;;;7.82;62.38;101327.97;5077008;28;20052;-86
2021/04/15 08:39:31;;;;;;;7.68;3.00;;;;;;;7.89;62.12;101322.63;5076737;28;20046;-86
2021/04/15 08:42:16;;;;;;;6.05;3.05;;;;;;;7.99;61.82;101325.94;5058843;28;20052;-86
2021/04/15 08:45:04;;;;;;;6.70;2.85;;;;;;;8.04;61.42;101330.16;5057980;28;20497;-87
2021/04/15 08:47:51;;;;;;;5.80;2.55;;;;;;;8.13;61.14;101320.38;5058403;28;20055;-86
2021/04/15 08:50:33;;;;;;;5.05;2.45;;;;;;;8.18;61.58;101323.75;5075859;28;20048;-86
2021/04/15 08:53:26;;;;;;;7.57;2.53;;;;;;;8.27;61.12;101314.81;5076216;28;20165;-86
2021/04/15 08:56:00;;;;;;;7.55;2.67;;;;;;;8.39;61.44;101319.81;5075516;28;20506;-86
2021/04/15 08:58:55;;;;;;;10.23;2.70;;;;;;;8.47;60.76;101323.13;5076045;28;20053;-86
2021/04/15 09:01:39;;;;;;;7.97;2.33;;;;;;;8.58;60.58;101319.41;5075857;28;20044;-86
2021/04/15 09:04:17;;;;;;;7.18;2.50;;;;;;;8.67;60.94;101323.59;5075789;28;20045;-86
2021/04/15 09:07:11;;;;;;;7.45;3.00;;;;;;;8.71;61.46;101320.84;5057848;28;20052;-86
2021/04/15 09:09:52;;;;;;;7.28;2.65;;;;;;;8.85;61.95;101314.38;5075776;28;20535;-85
2021/04/15 09:12:56;;;;;;;8.10;3.42;;;;;;;9.00;62.00;101321.03;5075731;28;20048;-85
2021/04/15 09:15:34;;;;;;;8.32;2.80;;;;;;;9.21;61.10;101322.25;5074833;28;20048;-86
2021/04/15 09:18:03;;;;;;;4.95;2.88;;;;;;;9.41;61.61;101315.59;5057864;28;20668;-86
2021/04/15 09:21:01;;;;;;;9.27;3.38;;;;;;;9.56;61.09;101313.44;5057857;28;20052;-86
2021/04/15 09:23:49;;;;;;;9.15;3.72;;;;;;;9.75;61.50;101319.03;5076594;28;20052;-86
2021/04/15 09:26:55;;;;;;;8.40;3.00;;;;;;;9.91;60.23;101322.13;5057833;28;20049;-86
2021/04/15 09:29:42;;;;;;;8.15;3.05;;;;;;;10.05;59.30;101316.44;5038842;28;20149;-86
2021/04/15 09:32:35;;;;;;;7.38;2.97;;;;;;;10.17;59.86;101308.19;5075280;28;20052;-86
2021/04/15 09:35:18;;;;;;;8.95;3.42;;;;;;;10.30;58.24;101308.69;5074622;28;20044;-86
2021/04/15 09:38:15;;;;;;;7.85;3.28;;;;;;;10.40;58.70;101311.03;5075096;28;20481;-86
2021/04/15 09:41:16;;;;;;;9.50;3.28;;;;;;;10.46;58.47;101315.28;5057700;28;20086;-86
2021/04/15 09:43:42;;;;;;;11.02;3.53;;;;;;;10.54;59.03;101306.19;5074704;28;20067;-86
2021/04/15 09:46:23;;;;;;;5.90;3.25;;;;;;;10.55;57.27;101309.72;5074943;28;20059;-86
2021/04/15 09:49:13;;;;;;;6.60;3.15;;;;;;;10.59;57.32;101310.47;5075307;28;20079;-86
2021/04/15 09:51:39;;;;;;;5.72;2.95;;;;;;;10.63;57.89;101307.69;5057214;28;20052;-86
2021/04/15 09:54:23;;;;;;;7.90;3.25;;;;;;;10.63;57.44;101305.06;5056643;28;20048;-86
2021/04/15 09:56:52;;;;;;;;;;;;;;;10.70;58.06;101297.81;5075202;28;20048;-86
2021/04/15 09:59:44;;;;;;;6.78;2.65;;;;;;;10.86;59.18;101303.44;5074864;28;19924;-86
2021/04/15 10:02:27;;;;;;;10.60;3.00;;;;;;;10.99;58.64;101300.41;5051285;28;20059;-86
2021/04/15 10:04:56;;;;;;;;;;;;;;;11.16;58.51;101299.81;5056815;28;20143;-86
2021/04/15 10:07:32;;;;;;;6.15;3.45;;;;;;;11.29;56.99;101295.81;5074560;28;20532;-86
2021/04/15 10:10:22;;;;;;;5.35;2.72;;;;;;;11.33;55.72;101299.25;5057026;28;20057;-86
2021/04/15 10:12:56;;;;;;;6.30;2.92;;;;;;;11.37;55.30;101294.69;5074754;28;20045;-86
2021/04/15 10:15:37;;;;;;;7.78;3.03;;;;;;;11.38;54.97;101296.41;5074151;28;20048;-86
2021/04/15 10:18:15;;;;;;;10.95;2.88;;;;;;;11.45;55.85;101287.38;5074432;28;20044;-86
2021/04/15 10:21:07;;;;;;;7.60;2.80;;;;;;;11.55;56.04;101287.91;5074576;28;20413;-86
2021/04/15 10:23:33;;;;;;;5.38;2.50;;;;;;;11.69;56.43;101290.03;5073990;28;20048;-86
2021/04/15 10:26:15;;;;;;;6.85;2.28;;;;;;;11.81;56.14;101284.28;5056148;28;20063;-86
2021/04/15 10:29:02;;;;;;;5.80;2.75;;;;;;;11.94;54.64;101279.44;5074040;28;20059;-86
2021/04/15 10:31:55;;;;;;;9.02;2.70;;;;;;;12.11;54.33;101276.16;5056632;28;20524;-86
2021/04/15 10:34:48;;;;;;;5.50;3.03;;;;;;;12.28;53.13;101276.41;5070770;28;20145;-86
2021/04/15 10:37:26;;;;;;;10.52;2.80;;;;;;;12.39;53.03;101271.56;5074446;28;20451;-86
2021/04/15 10:40:36;;;;;;;8.02;2.85;;;;;;;12.45;52.07;101273.09;5056044;28;20660;-87
2021/04/15 10:43:27;;;;;;;4.07;2.45;;;;;;;12.50;51.56;101273.78;5056143;28;20048;-86
2021/04/15 10:46:13;;;;;;;9.05;3.33;;;;;;;12.51;50.58;101271.06;5055409;28;20057;-87
2021/04/15 10:48:49;;;;;;;4.95;2.42;;;;;;;12.55;52.10;101258.59;5055898;28;20512;-86
2021/04/15 10:51:36;;;;;;;5.80;2.55;;;;;;;12.52;49.04;101266.63;5073872;28;20122;-86
2021/04/15 10:54:25;;;;;;;6.80;2.00;;;;;;;12.50;49.39;101258.81;5055610;28;20733;-86
2021/04/15 10:56:55;;;;;;;5.82;2.55;;;;;;;12.51;49.42;101259.63;5056196;28;20040;-87
2021/04/15 10:59:33;;;;;;;5.05;2.35;;;;;;;12.43;48.35;101259.09;5055701;28;20467;-87
2021/04/15 11:02:26;;;;;;;4.60;2.53;;;;;;;12.34;48.30;101255.91;5073614;28;20052;-86
2021/04/15 11:05:15;;;;;;;5.50;2.78;;;;;;;12.32;48.61;101257.75;5055177;28;20068;-86
2021/04/15 11:07:43;;;;;;;4.80;2.38;;;;;;;12.43;51.90;101256.44;5072343;28;20045;-87
2021/04/15 11:10:18;;;;;;;6.22;2.70;;;;;;;12.68;52.25;101253.69;5073513;28;20048;-86
2021/04/15 11:12:45;;;;;;;6.10;2.65;;;;;;;13.15;54.56;101260.50;5073903;28;20098;-87
2021/04/15 11:15:13;;;;;;;5.07;2.35;;;;;;;13.75;54.26;101260.56;5055924;28;20417;-88
2021/04/15 11:17:43;;;;;;;5.35;2.33;;;;;;;14.40;53.33;101254.84;5073643;28;20469;-85
2021/04/15 11:20:32;;;;;;;6.15;2.70;;;;;;;15.02;49.49;101250.88;5056106;28;20052;-85
2021/04/15 11:23:02;;;;;;;7.93;2.88;;;;;;;15.52;48.45;101255.41;5073959;28;20049;-84
2021/04/15 11:25:49;;;;;;;5.47;2.40;;;;;;;15.71;46.07;101245.50;5055859;28;20048;-85
2021/04/15 11:28:15;;;;;;;4.22;2.17;;;;;;;15.83;46.93;101248.41;5056088;28;20055;-85
2021/04/15 11:30:45;;;;;;;5.57;2.50;;;;;;;15.79;44.94;101247.75;5055979;28;20485;-85
2021/04/15 11:33:45;;;;;;;3.45;2.67;;;;;;;15.72;45.02;101249.00;5074137;28;20056;-85
2021/04/15 11:36:22;;;;;;;;;;;;;;;15.65;47.02;101240.53;5056773;28;20090;-85
2021/04/15 11:39:05;;;;;;;5.78;2.65;;;;;;;15.54;44.63;101238.44;5073749;28;19966;-85
2021/04/15 11:41:38;;;;;;;5.03;2.40;;;;;;;15.30;43.74;101240.63;5055619;28;20060;-87
2021/04/15 11:44:07;;;;;;;5.55;2.97;;;;;;;15.07;44.66;101237.41;5073763;28;20051;-87
2021/04/15 11:47:15;;;;;;;4.63;2.65;;;;;;;14.91;44.81;101237.34;5073239;28;20558;-87
2021/04/15 11:49:44;;;;;;;7.65;2.70;;;;;;;15.09;47.79;101231.09;5047578;28;20049;-87
2021/04/15 11:52:32;;;;;;;4.38;2.30;;;;;;;15.43;47.51;101222.25;5055515;28;20394;-87
2021/04/15 11:54:58;;;;;;;5.55;2.58;;;;;;;15.93;48.74;101223.09;5055187;28;20052;-87
2021/04/15 11:57:30;;;;;;;4.53;2.65;;;;;;;16.33;45.36;101216.47;5079018;28;20049;-87
2021/04/15 11:59:56;;;;;;;2.80;1.92;;;;;;;16.65;45.65;101224.34;5087418;22;20045;-85
2021/04/15 12:02:30;;;;;;;5.35;2.90;;;;;;;16.78;42.75;101222.66;5042002;28;20393;-85
2021/04/15 12:05:17;;;;;;;5.45;2.67;;;;;;;16.78;39.82;101220.00;5059729;28;20492;-85
2021/04/15 12:07:54;;;;;;;5.95;2.95;;;;;;;16.66;40.47;101220.72;5042421;28;20052;-85
2021/04/15 12:10:28;;;;;;;6.78;3.30;;;;;;;16.42;39.99;101214.09;5039896;28;20050;-84
2021/04/15 12:13:00;;;;;;;5.15;2.58;;;;;;;16.15;41.40;101227.22;5022265;28;20064;-85
2021/04/15 12:15:43;;;;;;;3.60;2.72;;;;;;;15.74;39.95;101232.06;5021959;28;20053;-85
2021/04/15 12:18:09;;;;;;;;;;;;;;;15.52;43.02;101232.38;5022568;28;20115;-85
2021/04/15 12:20:45;;;;;;;5.13;2.50;;;;;;;15.21;41.11;101232.22;5039760;28;19929;-85
2021/04/15 12:23:11;;;;;;;3.95;2.63;;;;;;;14.92;42.38;101234.59;5039956;28;20608;-85
2021/04/15 12:25:58;;;;;;;6.65;2.80;;;;;;;14.58;42.14;101228.34;5039614;28;20050;-85